Silver Lake, WI (53170)

4:44 AM CST on December 10, 2016 (GMT -0600)
SILVER LAKE, WI | | Change Station
Active Advisory: Winter Storm Watch

Elev 761 ft 42.55 °N, 88.17 °W | Updated 8 seconds ago

Mostly Cloudy
Mostly Cloudy
17.1 °F
Feels Like 11 °F
N
4.2
Wind Variable Wind from WNW

Today
High -- | Low -- °F
--% Chance of Precip.
Yesterday
High -- | Low -- °F
Precip. -- in
Pressure 30.47 in
Visibility 10.0 miles
Clouds Scattered Clouds 11000 ft
Windchill 11 °F
Dew Point 16 °F
Humidity 95%
Rainfall 0.00 in
Snow Depth Not available.
7:12 AM 4:19 PM
Waxing Gibbous, 82% visible
METAR KBUU 101035Z AUTO 26004KT 10SM SCT110 M06/M08 A3047 RMK AO2 T10581078
Pressure 30.47 in
Visibility 10.0 miles
Clouds Scattered Clouds 11000 ft
Windchill 11 °F
Dew Point 16 °F
Humidity 95%
Rainfall 0.00 in
Snow Depth Not available.
7:12 AM 4:19 PM
Waxing Gibbous, 82% visible
METAR KBUU 101035Z AUTO 26004KT 10SM SCT110 M06/M08 A3047 RMK AO2 T10581078

10-Day Weather Forecast

Almanac

Astronomy

Dec. 10, 2016 Rise Set
Actual Time
Civil Twilight
Nautical Twilight
Astronomical Twilight
Moon
Length of Visible Light
Length of Day
Tomorrow will be .
, % of the Moon is Illuminated

Today's Extremes

State Highs State Lows

Community

WunderPhotos

Upload Photos

1,956,536 photos uploaded!

WunderBlog® & News

Nearby

Air Quality

  Air Quality AQ Index Pollutant
Not available.

Snow Depth

Station Depth Elevation

Earthquake Activity

City Distance Mag. Time & Date
Minimum magnitude displayed is 2.5.

Coastal Water Temperatures

Place Temperature

Stations

Nearby Weather Stations

Station Location Temp. Windchill Dew Point Humidity Wind Precip. Elev Updated Type
                   

Watches & Warnings

Winter Storm Watch
Issued: 3:56 AM CST Dec. 10, 2016 – National Weather Service

... Winter Storm Watch remains in effect from this evening through
Sunday evening...

A Winter Storm Watch remains in effect from this evening through
Sunday evening.

* Timing... accumulating snow developing this evening and
continuing into Sunday evening.

* Snow accumulations... 3 to 4 inches tonight... with a storm total
of 6 to 9 inches possible.

* Winds... southeast 10 to 15 mph with gusts to 20 mph on Sunday
turning to the west later Sunday night into Monday morning.

* Impacts... hazardous travel conditions developing tonight
continuing into Sunday. Reduced visibility due to falling snow
with some drifting snow.

Precautionary/preparedness actions...

A Winter Storm Watch means there is a potential for significant
snow... sleet... or ice accumulations that may impact travel.
Continue to monitor the latest forecasts.



Hentz